Time;durP1;ratioP1;P1;durP2;ratioP2;P2;SDS_P1;SDS_P2;PMS_P1;PMS_P2;Temp;Humidity;BMP_temperature;BMP_pressure;BME280_temperature;BME280_humidity;BME280_pressure;Samples;Min_cycle;Max_cycle;Signal;HPM_P1;HPM_P2
2021/11/10 00:01:28;;;;;;;12.30;11.10;;;;;;;;;;5056718;28;24464;-65
2021/11/10 00:03:53;;;;;;;12.43;11.23;;;;;;;;;;5063508;28;24480;-64
2021/11/10 00:06:19;;;;;;;12.77;11.57;;;;;;;;;;5062344;28;24421;-64
2021/11/10 00:08:44;;;;;;;12.65;11.35;;;;;;;;;;5062991;28;24415;-65
2021/11/10 00:11:09;;;;;;;12.45;11.25;;;;;;;;;;5055809;28;24816;-64
2021/11/10 00:13:34;;;;;;;12.88;11.57;;;;;;;;;;5056546;28;24423;-64
2021/11/10 00:15:59;;;;;;;12.70;11.40;;;;;;;;;;5058331;28;24510;-65
2021/11/10 00:18:25;;;;;;;12.68;11.38;;;;;;;;;;5059983;28;25272;-64
2021/11/10 00:20:50;;;;;;;13.50;12.10;;;;;;;;;;5060351;28;25005;-64
2021/11/10 00:23:15;;;;;;;13.67;12.27;;;;;;;;;;5062460;28;24415;-64
2021/11/10 00:25:41;;;;;;;13.67;12.27;;;;;;;;;;5060865;28;24816;-64
2021/11/10 00:28:06;;;;;;;12.98;11.63;;;;;;;;;;5056834;28;24499;-64
2021/11/10 00:30:32;;;;;;;13.10;11.80;;;;;;;;;;5057491;28;24426;-63
2021/11/10 00:32:57;;;;;;;13.07;11.77;;;;;;;;;;5054423;28;24789;-63
2021/11/10 00:35:22;;;;;;;12.33;11.13;;;;;;;;;;5050171;28;24874;-63
2021/11/10 00:37:47;;;;;;;12.90;11.50;;;;;;;;;;5061119;28;24502;-64
2021/11/10 00:40:13;;;;;;;13.33;11.93;;;;;;;;;;5056796;28;24406;-64
2021/11/10 00:42:38;;;;;;;13.07;11.77;;;;;;;;;;5060438;28;24944;-64
2021/11/10 00:45:04;;;;;;;13.30;11.90;;;;;;;;;;5061708;28;24488;-64
2021/11/10 00:47:29;;;;;;;12.90;11.70;;;;;;;;;;5053131;28;25144;-64
2021/11/10 00:49:54;;;;;;;13.80;12.50;;;;;;;;;;5055514;28;25090;-64
2021/11/10 00:52:20;;;;;;;13.00;11.70;;;;;;;;;;5056487;28;24433;-63
2021/11/10 00:54:45;;;;;;;12.23;10.93;;;;;;;;;;5058127;28;24960;-64
2021/11/10 00:57:10;;;;;;;12.37;11.07;;;;;;;;;;5047216;28;24418;-63
2021/11/10 00:59:35;;;;;;;12.65;11.35;;;;;;;;;;5061705;28;24502;-63
2021/11/10 01:02:00;;;;;;;12.00;10.70;;;;;;;;;;5060269;28;24963;-64
2021/11/10 01:04:26;;;;;;;12.15;10.95;;;;;;;;;;5056528;28;24418;-63
2021/11/10 01:06:51;;;;;;;12.50;11.27;;;;;;;;;;5058252;28;24450;-64
2021/11/10 01:09:17;;;;;;;13.65;11.93;;;;;;;;;;5058824;28;24414;-65
2021/11/10 01:11:47;;;;;;;11.90;10.70;;;;;;;;;;5061943;28;25044;-64
2021/11/10 01:14:13;;;;;;;13.57;11.93;;;;;;;;;;5059305;28;24427;-65
2021/11/10 01:16:38;;;;;;;12.60;11.30;;;;;;;;;;5059100;28;24414;-64
2021/11/10 01:19:04;;;;;;;16.23;13.00;;;;;;;;;;5056266;28;24983;-65
2021/11/10 01:21:29;;;;;;;13.27;11.87;;;;;;;;;;5058193;28;24406;-64
2021/11/10 01:23:54;;;;;;;13.77;12.38;;;;;;;;;;5060502;28;24824;-64
2021/11/10 01:26:19;;;;;;;13.20;11.90;;;;;;;;;;5061824;28;24448;-64
2021/11/10 01:28:44;;;;;;;13.60;12.20;;;;;;;;;;5061654;28;24976;-64
2021/11/10 01:31:10;;;;;;;12.47;11.27;;;;;;;;;;5038130;28;24422;-65
2021/11/10 01:33:35;;;;;;;13.20;11.67;;;;;;;;;;5056456;28;24508;-63
2021/11/10 01:36:00;;;;;;;13.40;12.00;;;;;;;;;;5054084;28;24422;-63
2021/11/10 01:38:25;;;;;;;13.67;11.70;;;;;;;;;;5055495;28;24464;-63
2021/11/10 01:40:51;;;;;;;14.10;12.33;;;;;;;;;;5063677;28;24464;-64
2021/11/10 01:43:17;;;;;;;15.10;12.25;;;;;;;;;;5063378;28;24411;-63
2021/11/10 01:45:42;;;;;;;15.25;12.38;;;;;;;;;;5061415;28;24892;-63
2021/11/10 01:48:07;;;;;;;13.02;11.73;;;;;;;;;;5059272;28;24518;-63
2021/11/10 01:50:32;;;;;;;13.68;11.95;;;;;;;;;;5058194;28;24450;-64
2021/11/10 01:52:58;;;;;;;11.87;10.70;;;;;;;;;;5058183;28;24500;-64
2021/11/10 01:55:23;;;;;;;14.27;11.83;;;;;;;;;;5065591;28;24984;-63
2021/11/10 01:57:48;;;;;;;13.30;11.33;;;;;;;;;;5061261;28;24937;-63
2021/11/10 02:00:16;;;;;;;12.67;11.27;;;;;;;;;;5044170;28;24869;-64
2021/11/10 02:02:42;;;;;;;13.60;12.20;;;;;;;;;;5047303;28;24423;-63
2021/11/10 02:05:08;;;;;;;14.40;12.20;;;;;;;;;;5063401;28;24452;-63
2021/11/10 02:07:34;;;;;;;14.13;11.88;;;;;;;;;;5064345;28;24495;-64
2021/11/10 02:09:59;;;;;;;13.50;12.10;;;;;;;;;;5063221;28;24502;-63
2021/11/10 02:12:24;;;;;;;12.65;11.35;;;;;;;;;;5061878;28;24425;-63
2021/11/10 02:14:49;;;;;;;12.10;10.90;;;;;;;;;;5055120;28;24422;-64
2021/11/10 02:17:16;;;;;;;15.23;12.20;;;;;;;;;;5063035;28;24441;-63
2021/11/10 02:19:41;;;;;;;12.13;10.90;;;;;;;;;;5063990;28;25020;-63
2021/11/10 02:22:06;;;;;;;14.07;11.60;;;;;;;;;;5063354;28;24561;-63
2021/11/10 02:24:32;;;;;;;13.20;10.33;;;;;;;;;;5060792;28;24453;-63
2021/11/10 02:26:57;;;;;;;12.03;10.73;;;;;;;;;;5063239;28;25063;-63
2021/11/10 02:29:25;;;;;;;13.90;11.87;;;;;;;;;;5062221;28;24493;-66
2021/11/10 02:31:51;;;;;;;14.20;12.73;;;;;;;;;;5061795;28;24431;-63
2021/11/10 02:34:16;;;;;;;12.40;11.10;;;;;;;;;;5061616;28;24586;-63
2021/11/10 02:36:41;;;;;;;13.40;11.73;;;;;;;;;;5056213;28;24458;-62
2021/11/10 02:39:11;;;;;;;14.10;12.13;;;;;;;;;;5056182;28;24956;-65
2021/11/10 02:41:37;;;;;;;14.20;12.38;;;;;;;;;;5058266;28;24971;-62
2021/11/10 02:44:05;;;;;;;14.60;13.10;;;;;;;;;;5064120;28;24411;-63
2021/11/10 02:46:30;;;;;;;13.02;11.63;;;;;;;;;;5064399;28;24975;-63
2021/11/10 02:48:56;;;;;;;12.80;11.50;;;;;;;;;;5061302;28;24423;-63
2021/11/10 02:51:21;;;;;;;12.65;11.35;;;;;;;;;;5056556;28;24525;-63
2021/11/10 02:53:46;;;;;;;13.13;11.63;;;;;;;;;;5058605;28;24419;-63
2021/11/10 02:56:11;;;;;;;13.60;11.70;;;;;;;;;;5061432;28;25179;-64
2021/11/10 02:58:37;;;;;;;12.97;11.37;;;;;;;;;;5062341;28;25201;-63
2021/11/10 03:01:03;;;;;;;13.40;11.37;;;;;;;;;;5061466;28;24410;-63
2021/11/10 03:03:29;;;;;;;12.65;11.35;;;;;;;;;;5064198;28;24803;-63
2021/11/10 03:05:54;;;;;;;13.07;10.97;;;;;;;;;;5059592;28;25009;-62
2021/11/10 03:08:19;;;;;;;14.17;11.30;;;;;;;;;;5064133;28;24415;-63
2021/11/10 03:10:45;;;;;;;13.90;11.13;;;;;;;;;;5063619;28;24430;-63
2021/11/10 03:13:10;;;;;;;12.27;11.02;;;;;;;;;;5059958;28;24465;-63
2021/11/10 03:15:39;;;;;;;11.90;10.60;;;;;;;;;;5050523;28;24410;-63
2021/11/10 03:18:04;;;;;;;12.02;10.80;;;;;;;;;;5059054;28;24979;-63
2021/11/10 03:20:30;;;;;;;12.65;11.32;;;;;;;;;;5063966;28;24417;-62
2021/11/10 03:22:55;;;;;;;12.20;10.73;;;;;;;;;;5061193;28;24425;-63
2021/11/10 03:25:20;;;;;;;12.00;10.80;;;;;;;;;;5062954;28;24418;-63
2021/11/10 03:27:45;;;;;;;12.88;11.48;;;;;;;;;;5059938;28;25033;-63
2021/11/10 03:30:11;;;;;;;14.18;12.68;;;;;;;;;;5056955;28;24414;-63
2021/11/10 03:32:36;;;;;;;13.70;12.27;;;;;;;;;;5059495;28;24458;-64
2021/11/10 03:35:01;;;;;;;13.52;12.13;;;;;;;;;;5059151;28;24956;-63
2021/11/10 03:37:26;;;;;;;13.00;11.70;;;;;;;;;;5063795;28;24963;-64
2021/11/10 03:39:51;;;;;;;13.13;11.60;;;;;;;;;;5061445;28;24522;-64
2021/11/10 03:42:16;;;;;;;13.77;12.27;;;;;;;;;;5059205;28;24971;-64
2021/11/10 03:44:42;;;;;;;13.10;11.70;;;;;;;;;;5047603;28;24439;-64
2021/11/10 03:47:07;;;;;;;13.70;12.30;;;;;;;;;;5057954;28;24411;-64
2021/11/10 03:49:32;;;;;;;14.20;12.27;;;;;;;;;;5063489;28;24427;-63
2021/11/10 03:51:57;;;;;;;13.88;12.48;;;;;;;;;;5060494;28;24470;-64
2021/11/10 03:54:23;;;;;;;13.50;12.10;;;;;;;;;;5062321;28;24431;-64
2021/11/10 03:56:48;;;;;;;14.87;11.90;;;;;;;;;;5060900;28;24940;-64
2021/11/10 03:59:14;;;;;;;13.43;12.03;;;;;;;;;;5057187;28;24887;-63
2021/11/10 04:01:39;;;;;;;14.00;12.50;;;;;;;;;;5056988;28;24422;-64
2021/11/10 04:04:05;;;;;;;13.20;11.60;;;;;;;;;;5062814;28;24443;-64
2021/11/10 04:06:31;;;;;;;13.60;12.20;;;;;;;;;;5063556;28;24489;-64
2021/11/10 04:08:56;;;;;;;14.65;13.10;;;;;;;;;;5061111;28;24913;-64
2021/11/10 04:11:22;;;;;;;14.18;11.70;;;;;;;;;;5066141;28;24415;-64
2021/11/10 04:13:47;;;;;;;13.90;12.40;;;;;;;;;;5051388;28;24438;-64
2021/11/10 04:16:13;;;;;;;13.73;12.33;;;;;;;;;;5063011;28;24422;-64
2021/11/10 04:18:38;;;;;;;14.30;12.80;;;;;;;;;;5056858;28;24410;-64
2021/11/10 04:21:04;;;;;;;13.87;12.43;;;;;;;;;;5060690;28;24553;-63
2021/11/10 04:23:30;;;;;;;13.80;12.40;;;;;;;;;;5049016;28;24818;-63
2021/11/10 04:25:55;;;;;;;13.98;12.30;;;;;;;;;;5060441;28;24415;-64
2021/11/10 04:28:21;;;;;;;15.40;13.13;;;;;;;;;;5056452;28;24430;-64
2021/11/10 04:30:46;;;;;;;14.53;13.00;;;;;;;;;;5058848;28;24423;-64
2021/11/10 04:33:11;;;;;;;15.40;13.70;;;;;;;;;;5047532;28;24446;-65
2021/11/10 04:35:38;;;;;;;14.27;12.77;;;;;;;;;;5061647;28;24952;-65
2021/11/10 04:38:03;;;;;;;14.30;12.80;;;;;;;;;;5060415;28;24403;-64
2021/11/10 04:40:29;;;;;;;14.25;12.77;;;;;;;;;;5054680;28;24402;-64
2021/11/10 04:42:54;;;;;;;14.90;12.60;;;;;;;;;;5056586;28;24415;-64
2021/11/10 04:45:29;;;;;;;17.00;13.70;;;;;;;;;;5059353;28;24540;-64
2021/11/10 04:47:55;;;;;;;14.30;12.45;;;;;;;;;;5055320;28;24988;-65
2021/11/10 04:50:20;;;;;;;14.73;12.98;;;;;;;;;;5046315;28;24419;-65
2021/11/10 04:52:46;;;;;;;14.23;12.73;;;;;;;;;;5062120;28;24758;-65
2021/11/10 04:55:11;;;;;;;15.15;13.02;;;;;;;;;;5058517;28;24514;-64
2021/11/10 04:57:37;;;;;;;14.63;13.10;;;;;;;;;;5058102;28;25093;-65
2021/11/10 05:00:03;;;;;;;16.20;13.67;;;;;;;;;;5058248;28;24832;-64
2021/11/10 05:02:28;;;;;;;15.00;13.35;;;;;;;;;;5061592;28;24410;-65
2021/11/10 05:04:54;;;;;;;15.20;13.60;;;;;;;;;;5059488;28;24777;-66
2021/11/10 05:07:20;;;;;;;15.13;12.70;;;;;;;;;;5065824;28;24509;-65
2021/11/10 05:09:45;;;;;;;15.20;13.50;;;;;;;;;;5062710;28;24456;-65
2021/11/10 05:12:10;;;;;;;15.10;13.50;;;;;;;;;;5062130;28;25196;-66
2021/11/10 05:14:36;;;;;;;14.60;13.10;;;;;;;;;;5065965;28;24435;-65
2021/11/10 05:17:01;;;;;;;15.47;13.63;;;;;;;;;;5061607;28;24846;-66
2021/11/10 05:19:26;;;;;;;15.90;14.20;;;;;;;;;;5059753;28;24411;-65
2021/11/10 05:21:51;;;;;;;17.60;15.13;;;;;;;;;;5060886;28;24417;-66
2021/11/10 05:24:17;;;;;;;19.45;17.35;;;;;;;;;;5063218;28;24511;-67
2021/11/10 05:26:42;;;;;;;20.87;18.20;;;;;;;;;;5063222;28;24433;-66
2021/11/10 05:29:08;;;;;;;20.20;17.10;;;;;;;;;;5062653;28;24466;-66
2021/11/10 05:31:33;;;;;;;20.70;17.15;;;;;;;;;;5058081;28;24446;-66
2021/11/10 05:33:58;;;;;;;17.90;15.87;;;;;;;;;;5056118;28;24530;-66
2021/11/10 05:36:24;;;;;;;17.30;14.77;;;;;;;;;;5057835;28;24445;-65
2021/11/10 05:38:49;;;;;;;17.50;15.00;;;;;;;;;;5060495;28;24399;-65
2021/11/10 05:41:15;;;;;;;17.30;15.50;;;;;;;;;;5062225;28;24420;-65
2021/11/10 05:43:40;;;;;;;17.13;14.83;;;;;;;;;;5063000;28;24452;-66
2021/11/10 05:46:05;;;;;;;17.87;15.10;;;;;;;;;;5058825;28;25421;-65
2021/11/10 05:48:30;;;;;;;15.40;13.80;;;;;;;;;;5056148;28;24429;-65
2021/11/10 05:50:56;;;;;;;17.17;14.73;;;;;;;;;;5058649;28;24822;-66
2021/11/10 05:53:21;;;;;;;16.53;14.23;;;;;;;;;;5061257;28;24439;-65
2021/11/10 05:55:52;;;;;;;16.67;14.85;;;;;;;;;;5061725;28;25394;-65
2021/11/10 05:58:17;;;;;;;16.20;14.43;;;;;;;;;;5046506;28;24418;-66
2021/11/10 06:00:42;;;;;;;15.88;14.00;;;;;;;;;;5057273;28;24509;-67
2021/11/10 06:03:07;;;;;;;17.57;15.00;;;;;;;;;;5057990;28;24572;-66
2021/11/10 06:05:33;;;;;;;17.33;15.18;;;;;;;;;;5060746;28;24462;-66
2021/11/10 06:07:58;;;;;;;15.68;14.07;;;;;;;;;;5058842;28;24426;-67
2021/11/10 06:10:23;;;;;;;16.23;14.17;;;;;;;;;;5059090;28;24491;-66
2021/11/10 06:12:49;;;;;;;18.13;15.10;;;;;;;;;;5056471;28;24494;-66
2021/11/10 06:15:14;;;;;;;16.80;15.00;;;;;;;;;;5059388;28;24418;-65
2021/11/10 06:17:39;;;;;;;17.30;14.90;;;;;;;;;;5060722;28;24426;-66
2021/11/10 06:20:05;;;;;;;16.50;14.80;;;;;;;;;;5063253;28;24422;-67
2021/11/10 06:22:30;;;;;;;17.30;15.50;;;;;;;;;;5063981;28;24476;-66
2021/11/10 06:24:55;;;;;;;18.30;15.67;;;;;;;;;;5061931;28;24501;-66
2021/11/10 06:27:21;;;;;;;17.75;15.95;;;;;;;;;;5059033;28;24403;-66
2021/11/10 06:29:46;;;;;;;17.13;15.20;;;;;;;;;;5063089;28;24526;-66
2021/11/10 06:32:11;;;;;;;17.95;16.05;;;;;;;;;;5064377;28;25069;-67
2021/11/10 06:34:36;;;;;;;17.93;16.13;;;;;;;;;;5064742;28;24423;-67
2021/11/10 06:37:01;;;;;;;18.97;16.97;;;;;;;;;;5062283;28;24418;-64
2021/11/10 06:39:26;;;;;;;18.77;16.87;;;;;;;;;;5059196;28;24398;-64
2021/11/10 06:41:52;;;;;;;18.27;16.47;;;;;;;;;;5062042;28;24956;-65
2021/11/10 06:44:17;;;;;;;19.07;17.03;;;;;;;;;;5064240;28;24967;-65
2021/11/10 06:46:42;;;;;;;20.17;18.20;;;;;;;;;;5064546;28;24387;-65
2021/11/10 06:49:07;;;;;;;19.70;17.80;;;;;;;;;;5060377;28;24468;-65
2021/11/10 06:51:33;;;;;;;18.83;16.93;;;;;;;;;;5059292;28;24414;-64
2021/11/10 06:53:58;;;;;;;20.58;18.50;;;;;;;;;;5062503;28;24442;-64
2021/11/10 06:56:23;;;;;;;23.17;20.33;;;;;;;;;;5063997;28;24398;-65
2021/11/10 06:58:49;;;;;;;19.37;17.37;;;;;;;;;;5061527;28;24415;-65
2021/11/10 07:01:15;;;;;;;18.25;16.45;;;;;;;;;;5054074;28;24407;-64
2021/11/10 07:03:40;;;;;;;18.20;16.40;;;;;;;;;;5057721;28;24410;-64
2021/11/10 07:06:05;;;;;;;17.77;16.08;;;;;;;;;;5058545;28;24519;-64
2021/11/10 07:08:30;;;;;;;18.27;16.40;;;;;;;;;;5060540;28;24410;-64
2021/11/10 07:10:55;;;;;;;18.70;16.80;;;;;;;;;;5058995;28;25052;-64
2021/11/10 07:13:22;;;;;;;18.03;16.27;;;;;;;;;;5055068;28;24422;-63
2021/11/10 07:15:47;;;;;;;20.50;18.40;;;;;;;;;;5057418;28;24986;-66
2021/11/10 07:18:12;;;;;;;21.57;19.10;;;;;;;;;;5058771;28;24495;-66
2021/11/10 07:20:37;;;;;;;23.53;21.23;;;;;;;;;;5059307;28;24475;-66
2021/11/10 07:23:02;;;;;;;21.67;19.47;;;;;;;;;;5059104;28;24765;-66
2021/11/10 07:25:28;;;;;;;19.43;17.53;;;;;;;;;;5059556;28;24406;-66
2021/11/10 07:27:53;;;;;;;20.30;18.30;;;;;;;;;;5049270;28;24549;-64
2021/11/10 07:30:19;;;;;;;18.93;17.03;;;;;;;;;;5054302;28;24457;-64
2021/11/10 07:32:44;;;;;;;21.40;19.07;;;;;;;;;;5055768;28;24470;-64
2021/11/10 07:35:10;;;;;;;19.15;16.75;;;;;;;;;;5060314;28;24458;-66
2021/11/10 07:37:36;;;;;;;18.40;16.45;;;;;;;;;;5060050;28;24879;-64
2021/11/10 07:40:01;;;;;;;21.37;19.17;;;;;;;;;;5059392;28;24419;-64
2021/11/10 07:42:26;;;;;;;20.00;17.80;;;;;;;;;;5064369;28;24467;-64
2021/11/10 07:44:57;;;;;;;22.10;19.60;;;;;;;;;;5061079;28;24421;-65
2021/11/10 07:47:24;;;;;;;21.27;18.98;;;;;;;;;;5060144;28;24479;-63
2021/11/10 07:49:49;;;;;;;21.40;19.10;;;;;;;;;;5061148;28;24809;-63
2021/11/10 07:52:15;;;;;;;20.00;18.00;;;;;;;;;;5062686;28;24991;-63
2021/11/10 07:54:40;;;;;;;20.57;18.43;;;;;;;;;;5063091;28;24529;-63
2021/11/10 07:57:05;;;;;;;20.90;18.70;;;;;;;;;;5056716;28;24406;-63
2021/11/10 07:59:30;;;;;;;21.73;19.33;;;;;;;;;;5057154;28;24435;-63
2021/11/10 08:01:56;;;;;;;23.20;20.70;;;;;;;;;;5059648;28;24383;-63
2021/11/10 08:04:21;;;;;;;21.35;19.35;;;;;;;;;;5062729;28;24503;-63
2021/11/10 08:06:46;;;;;;;19.58;17.58;;;;;;;;;;5062066;28;24470;-63
2021/11/10 08:09:12;;;;;;;20.27;18.27;;;;;;;;;;5059332;28;24406;-63
2021/11/10 08:11:37;;;;;;;20.37;18.27;;;;;;;;;;5059287;28;24379;-64
2021/11/10 08:14:03;;;;;;;21.57;19.37;;;;;;;;;;5060721;28;24466;-63
2021/11/10 08:16:28;;;;;;;21.57;19.40;;;;;;;;;;5062543;28;24815;-64
2021/11/10 08:18:53;;;;;;;22.57;20.27;;;;;;;;;;5060358;28;24430;-64
2021/11/10 08:21:19;;;;;;;23.20;20.70;;;;;;;;;;5059050;28;24488;-64
2021/11/10 08:23:44;;;;;;;21.50;19.20;;;;;;;;;;5059091;28;24391;-64
2021/11/10 08:26:09;;;;;;;22.40;20.10;;;;;;;;;;5058177;28;24986;-64
2021/11/10 08:28:34;;;;;;;23.70;21.40;;;;;;;;;;5062678;28;24510;-63
2021/11/10 08:31:00;;;;;;;22.70;20.50;;;;;;;;;;5060502;28;24737;-64
2021/11/10 08:33:25;;;;;;;22.67;20.27;;;;;;;;;;5060230;28;24813;-64
2021/11/10 08:35:50;;;;;;;22.38;20.13;;;;;;;;;;5058797;28;24407;-64
2021/11/10 08:38:17;;;;;;;21.73;19.50;;;;;;;;;;5055969;28;24419;-64
2021/11/10 08:40:42;;;;;;;22.40;20.20;;;;;;;;;;5058581;28;24434;-63
2021/11/10 08:43:10;;;;;;;22.13;19.93;;;;;;;;;;5062436;28;24496;-64
2021/11/10 08:45:36;;;;;;;21.85;19.50;;;;;;;;;;5062356;28;24395;-64
2021/11/10 08:48:04;;;;;;;21.85;19.75;;;;;;;;;;5060094;28;24399;-64
2021/11/10 08:50:30;;;;;;;20.17;18.27;;;;;;;;;;5054843;28;24703;-65
2021/11/10 08:52:55;;;;;;;19.80;17.80;;;;;;;;;;5056943;28;24502;-63
2021/11/10 08:55:20;;;;;;;20.23;18.20;;;;;;;;;;5060100;28;24425;-65
2021/11/10 08:57:46;;;;;;;19.23;17.33;;;;;;;;;;5062140;28;24494;-65
2021/11/10 09:00:14;;;;;;;21.33;19.13;;;;;;;;;;5061595;28;24444;-64
2021/11/10 09:02:39;;;;;;;18.85;16.95;;;;;;;;;;5058433;28;24406;-65
2021/11/10 09:05:05;;;;;;;18.50;16.60;;;;;;;;;;5056028;28;24399;-65
2021/11/10 09:07:30;;;;;;;19.73;17.83;;;;;;;;;;5058578;28;24434;-65
2021/11/10 09:09:55;;;;;;;19.75;17.85;;;;;;;;;;5057693;28;24602;-65
2021/11/10 09:12:20;;;;;;;18.88;16.98;;;;;;;;;;5061962;28;24442;-65
2021/11/10 09:14:45;;;;;;;17.93;16.17;;;;;;;;;;5061234;28;24769;-65
2021/11/10 09:17:12;;;;;;;17.63;15.87;;;;;;;;;;5058927;28;24399;-65
2021/11/10 09:19:38;;;;;;;17.02;15.43;;;;;;;;;;5058012;28;24851;-66
2021/11/10 09:22:03;;;;;;;16.25;14.70;;;;;;;;;;5058070;28;24418;-65
2021/11/10 09:24:28;;;;;;;17.25;15.65;;;;;;;;;;5062026;28;24443;-65
2021/11/10 09:26:54;;;;;;;17.30;15.60;;;;;;;;;;5059583;28;24912;-65
2021/11/10 09:29:20;;;;;;;16.40;14.90;;;;;;;;;;5060324;28;24512;-65
2021/11/10 09:31:45;;;;;;;19.03;17.13;;;;;;;;;;5057608;28;24972;-65
2021/11/10 09:34:12;;;;;;;19.50;17.60;;;;;;;;;;5056127;28;24534;-65
2021/11/10 09:36:39;;;;;;;18.42;16.73;;;;;;;;;;5058260;28;24417;-65
2021/11/10 09:39:05;;;;;;;19.38;17.48;;;;;;;;;;5059503;28;24452;-64
2021/11/10 09:41:31;;;;;;;18.75;16.77;;;;;;;;;;5061352;28;24421;-65
2021/11/10 09:43:58;;;;;;;19.57;17.77;;;;;;;;;;5060270;28;24465;-64
2021/11/10 09:46:23;;;;;;;19.27;17.38;;;;;;;;;;5056225;28;24387;-64
2021/11/10 09:48:52;;;;;;;19.50;17.60;;;;;;;;;;5055502;28;24402;-65
2021/11/10 09:51:17;;;;;;;18.48;16.77;;;;;;;;;;5059562;28;24411;-65
2021/11/10 09:53:42;;;;;;;18.90;16.93;;;;;;;;;;5062367;28;24437;-64
2021/11/10 09:56:07;;;;;;;17.77;15.97;;;;;;;;;;5063052;28;24725;-64
2021/11/10 09:58:33;;;;;;;19.55;17.65;;;;;;;;;;5064833;28;24490;-65
2021/11/10 10:01:00;;;;;;;20.48;18.48;;;;;;;;;;5059224;28;24387;-65
2021/11/10 10:03:25;;;;;;;19.52;17.63;;;;;;;;;;5058349;28;24454;-65
2021/11/10 10:05:51;;;;;;;19.60;17.70;;;;;;;;;;5060929;28;24430;-65
2021/11/10 10:08:17;;;;;;;21.20;19.00;;;;;;;;;;5062767;28;25302;-64
2021/11/10 10:10:43;;;;;;;20.23;18.13;;;;;;;;;;5065213;28;24407;-65
2021/11/10 10:13:09;;;;;;;19.13;17.30;;;;;;;;;;5062267;28;24976;-65
2021/11/10 10:15:35;;;;;;;19.88;17.98;;;;;;;;;;5060989;28;24449;-65
2021/11/10 10:18:02;;;;;;;19.33;17.52;;;;;;;;;;5059057;28;24589;-65
2021/11/10 10:20:27;;;;;;;20.20;18.30;;;;;;;;;;5060363;28;24429;-65
2021/11/10 10:22:53;;;;;;;21.38;19.13;;;;;;;;;;5060343;28;24442;-65
2021/11/10 10:25:19;;;;;;;19.77;17.80;;;;;;;;;;5064113;28;24983;-65
2021/11/10 10:27:51;;;;;;;20.13;18.02;;;;;;;;;;5064381;28;24391;-64
2021/11/10 10:30:23;;;;;;;17.95;16.25;;;;;;;;;;5062233;28;24415;-64
2021/11/10 10:32:53;;;;;;;18.37;16.63;;;;;;;;;;5060232;28;24423;-65
2021/11/10 10:35:30;;;;;;;18.63;16.83;;;;;;;;;;5060031;28;24442;-65
2021/11/10 10:37:55;;;;;;;18.90;17.10;;;;;;;;;;5060552;28;24417;-65
2021/11/10 10:40:20;;;;;;;19.50;17.60;;;;;;;;;;5064283;28;24991;-64
2021/11/10 10:42:45;;;;;;;19.27;17.37;;;;;;;;;;5064169;28;24434;-64
2021/11/10 10:45:29;;;;;;;19.63;17.63;;;;;;;;;;5060059;28;24417;-65
2021/11/10 10:47:59;;;;;;;20.03;18.20;;;;;;;;;;5058702;28;24753;-64
2021/11/10 10:50:32;;;;;;;17.73;16.02;;;;;;;;;;5060332;28;24401;-64
2021/11/10 10:52:57;;;;;;;17.40;15.70;;;;;;;;;;5060251;28;24781;-64
2021/11/10 10:55:42;;;;;;;17.40;15.80;;;;;;;;;;5061835;28;24982;-65
2021/11/10 10:58:09;;;;;;;18.20;16.40;;;;;;;;;;5061852;28;24757;-65
2021/11/10 11:00:36;;;;;;;16.05;14.55;;;;;;;;;;5063744;28;25028;-64
2021/11/10 11:03:31;;;;;;;17.40;15.60;;;;;;;;;;5061413;28;24756;-64
2021/11/10 11:05:57;;;;;;;18.60;16.90;;;;;;;;;;5017831;28;24419;-65
2021/11/10 11:08:29;;;;;;;17.20;15.37;;;;;;;;;;5059877;28;24485;-64
2021/11/10 11:10:55;;;;;;;16.13;14.63;;;;;;;;;;5061931;28;24990;-65
2021/11/10 11:13:25;;;;;;;18.58;16.80;;;;;;;;;;5063591;28;24430;-65
2021/11/10 11:15:58;;;;;;;16.10;14.70;;;;;;;;;;5060988;28;24851;-65
2021/11/10 11:18:23;;;;;;;19.27;17.38;;;;;;;;;;5063318;28;24386;-65
2021/11/10 11:20:49;;;;;;;17.00;15.50;;;;;;;;;;5059616;28;24544;-65
2021/11/10 11:23:16;;;;;;;18.63;16.63;;;;;;;;;;5057109;28;24884;-65
2021/11/10 11:25:41;;;;;;;16.15;14.55;;;;;;;;;;5059757;28;24425;-63
2021/11/10 11:28:13;;;;;;;17.00;15.30;;;;;;;;;;5062795;28;24951;-64
2021/11/10 11:30:39;;;;;;;15.88;14.27;;;;;;;;;;5063629;28;24397;-63
2021/11/10 11:33:09;;;;;;;17.83;16.15;;;;;;;;;;5060603;28;24427;-63
2021/11/10 11:35:36;;;;;;;16.83;15.23;;;;;;;;;;5058754;28;24545;-65
2021/11/10 11:38:07;;;;;;;15.88;14.30;;;;;;;;;;5059432;28;24422;-64
2021/11/10 11:40:42;;;;;;;16.10;14.50;;;;;;;;;;5061120;28;24489;-64
2021/11/10 11:43:09;;;;;;;15.57;14.07;;;;;;;;;;5060804;28;24387;-64
2021/11/10 11:45:35;;;;;;;17.52;15.82;;;;;;;;;;5062266;28;24430;-65
2021/11/10 11:48:01;;;;;;;17.45;15.85;;;;;;;;;;5057296;28;25021;-64
2021/11/10 11:50:28;;;;;;;14.90;13.50;;;;;;;;;;5056980;28;24559;-64
2021/11/10 11:52:53;;;;;;;18.52;16.73;;;;;;;;;;5059045;28;24427;-65
2021/11/10 11:55:37;;;;;;;17.88;16.10;;;;;;;;;;5060592;28;24439;-65
2021/11/10 11:58:05;;;;;;;16.60;15.10;;;;;;;;;;5040904;28;24949;-65
2021/11/10 12:00:34;;;;;;;17.90;16.00;;;;;;;;;;5051705;28;24762;-65
2021/11/10 12:03:00;;;;;;;16.75;15.07;;;;;;;;;;5041997;28;24419;-65
2021/11/10 12:05:25;;;;;;;17.70;16.00;;;;;;;;;;5050994;28;24457;-65
2021/11/10 12:07:52;;;;;;;16.23;14.68;;;;;;;;;;5058874;28;24502;-66
2021/11/10 12:10:20;;;;;;;19.30;17.40;;;;;;;;;;5059044;28;24797;-65
2021/11/10 12:12:45;;;;;;;17.88;16.17;;;;;;;;;;5060513;28;24485;-66
2021/11/10 12:15:10;;;;;;;20.52;18.42;;;;;;;;;;5062053;28;25029;-64
2021/11/10 12:17:55;;;;;;;18.80;17.00;;;;;;;;;;5062339;28;24422;-64
2021/11/10 12:20:32;;;;;;;19.95;17.95;;;;;;;;;;5058570;28;24944;-65
2021/11/10 12:22:57;;;;;;;18.27;16.48;;;;;;;;;;5056757;28;24399;-64
2021/11/10 12:25:23;;;;;;;19.60;17.70;;;;;;;;;;5058770;28;24401;-64
2021/11/10 12:27:48;;;;;;;19.27;17.47;;;;;;;;;;5058119;28;24415;-64
2021/11/10 12:30:18;;;;;;;20.92;18.92;;;;;;;;;;5062687;28;24391;-64
2021/11/10 12:32:45;;;;;;;20.08;18.13;;;;;;;;;;5061939;28;24823;-64
2021/11/10 12:35:31;;;;;;;21.00;19.00;;;;;;;;;;5059912;28;24446;-65
2021/11/10 12:37:57;;;;;;;19.80;17.70;;;;;;;;;;5056184;28;24415;-63
2021/11/10 12:40:24;;;;;;;20.10;18.20;;;;;;;;;;5058342;28;24394;-67
2021/11/10 12:43:01;;;;;;;20.95;18.85;;;;;;;;;;5060347;28;24517;-65
2021/11/10 12:45:32;;;;;;;21.00;18.80;;;;;;;;;;5062629;28;24394;-66
2021/11/10 12:47:58;;;;;;;20.92;18.92;;;;;;;;;;5059893;28;24387;-65
2021/11/10 12:50:42;;;;;;;19.30;17.30;;;;;;;;;;5056203;28;24445;-66
2021/11/10 12:53:10;;;;;;;20.65;18.67;;;;;;;;;;5055620;28;24421;-65
2021/11/10 12:55:36;;;;;;;20.83;18.73;;;;;;;;;;5058548;28;24459;-66
2021/11/10 12:58:12;;;;;;;21.00;18.90;;;;;;;;;;5062118;28;24425;-65
2021/11/10 13:00:37;;;;;;;20.95;18.75;;;;;;;;;;5043490;28;24953;-66
2021/11/10 13:03:03;;;;;;;21.50;19.40;;;;;;;;;;5058554;28;24436;-66
2021/11/10 13:05:30;;;;;;;21.90;19.80;;;;;;;;;;5056540;28;24418;-66
2021/11/10 13:08:08;;;;;;;21.73;19.63;;;;;;;;;;5048063;28;24414;-66
2021/11/10 13:10:34;;;;;;;20.80;18.70;;;;;;;;;;5040377;28;24444;-66
2021/11/10 13:13:05;;;;;;;22.38;20.17;;;;;;;;;;5040013;28;24410;-66
2021/11/10 13:15:31;;;;;;;20.95;18.65;;;;;;;;;;5052759;28;25247;-66
2021/11/10 13:17:56;;;;;;;21.60;19.50;;;;;;;;;;5056313;28;24684;-66
2021/11/10 13:20:21;;;;;;;21.77;19.57;;;;;;;;;;5044110;28;24425;-66
2021/11/10 13:22:47;;;;;;;18.38;16.48;;;;;;;;;;5049020;28;24427;-65
2021/11/10 13:25:14;;;;;;;22.35;20.15;;;;;;;;;;5061326;28;24565;-66
2021/11/10 13:27:41;;;;;;;20.15;18.27;;;;;;;;;;5058134;28;24423;-65
2021/11/10 13:30:08;;;;;;;20.40;18.30;;;;;;;;;;5041704;28;25468;-65
2021/11/10 13:32:41;;;;;;;21.10;18.90;;;;;;;;;;5039448;28;24411;-65
2021/11/10 13:35:07;;;;;;;21.00;18.90;;;;;;;;;;5041670;28;24433;-66
2021/11/10 13:37:42;;;;;;;21.00;18.80;;;;;;;;;;5058154;28;24433;-65
2021/11/10 13:40:08;;;;;;;21.65;19.45;;;;;;;;;;5065211;28;25265;-65
2021/11/10 13:42:34;;;;;;;19.95;18.02;;;;;;;;;;5065576;28;24407;-65
2021/11/10 13:45:05;;;;;;;19.60;17.60;;;;;;;;;;5063063;28;24456;-65
2021/11/10 13:47:31;;;;;;;20.17;18.17;;;;;;;;;;5060756;28;24418;-65
2021/11/10 13:49:56;;;;;;;20.65;18.55;;;;;;;;;;5048285;28;24414;-66
2021/11/10 13:52:22;;;;;;;19.48;17.58;;;;;;;;;;5061471;28;24784;-65
2021/11/10 13:54:49;;;;;;;20.33;18.23;;;;;;;;;;5062503;28;24765;-66
2021/11/10 13:57:16;;;;;;;19.30;17.40;;;;;;;;;;5064653;28;24502;-65
2021/11/10 13:59:42;;;;;;;18.90;17.00;;;;;;;;;;5064939;28;24486;-66
2021/11/10 14:02:07;;;;;;;20.33;18.23;;;;;;;;;;5063075;28;24825;-65
2021/11/10 14:04:34;;;;;;;20.05;18.10;;;;;;;;;;5062742;28;25210;-65
2021/11/10 14:07:00;;;;;;;19.05;17.25;;;;;;;;;;5059284;28;24795;-66
2021/11/10 14:09:26;;;;;;;18.08;16.27;;;;;;;;;;5059468;28;24472;-65
2021/11/10 14:11:51;;;;;;;17.60;15.80;;;;;;;;;;5062809;28;24410;-66